Imperial County Airport
KIPL : now visible

Airfield :











YOU CAN JOIN US ON...

 
LOGIN :

Register | Disclaimer

   EN    FR    IT 

 









Legend :    VFR   Marginal VFR   IFR   Intensive IFR   Very Intensive IFR
Visi :
Ceiling :
>= 8 km
>= 3000ft
5 to 8 km
1000 to 3000 ft
1500m to 5 km
500 to 1000 ft
800 to 1500m
200 to 500 ft
< 800m
< 200 ft
Symbols :   Thunderstorms  Fog  Heavy snow  Heavy precipitations  Wind > 20 kt






- Airport Elevation : -54 ft


KIPL - Imperial County

CURRENT METAR :
  • 200253Z AUTO 26013KT 10SM CLR 26/06 A2973 RMK AO2 SLP066 T02560061 53013 PWINO $

EXPIRED METARs :
  • 200153Z AUTO 25017G23KT 10SM CLR 28/06 A2971 RMK AO2 PK WND 25027/0135 SLP059 T02830061 PWINO $
  • 200053Z AUTO 26020G29KT 10SM CLR 31/06 A2969 RMK AO2 PK WND 26029/0051 SLP055 T03060056 PWINO $
  • 192353Z AUTO 24006KT 10SM CLR 34/01 A2969 RMK AO2 SLP054 T03390011 10339 20278 56020 PWINO $
  • 192253Z AUTO 19005KT 10SM CLR 33/M01 A2970 RMK AO2 SLP056 T03331006 PWINO $

TAF KIPL
Valid from the 20 at 00:00 until the 21 at 00:00 UTC


192325Z 2000/2024 22005KT P6SM SKC
FM200100 26018G28KT P6SM SKC
FM200700 27008G15KT P6SM SKC
FM201200 26005KT P6SM SKC
KZLA FIR / North America



MET'MAP, your aeronautical weather chart ! - Copyright ORBIFLY December 2007 - Disclaimer

ORBIFLY MET'MAP TEAM :

Programming & Development : Alexandra Zaïnal
Original concept : Baudouin d'Aumeries
Technical & hardware support : Manuel Goepfert
Assistance : Marc-Olivier Méhu




SOURCES & CREDITS :

   NOAA       Earth
Advisory